sensor_id;sensor_type;location;lat;lon;timestamp;pressure;altitude;pressure_sealevel;temperature;humidity
55191;BME280;41070;50.360;18.742;2023-07-31T00:01:15;98316.79;;;18.93;81.16
55191;BME280;41070;50.360;18.742;2023-07-31T00:04:48;98320.58;;;18.86;81.59
55191;BME280;41070;50.360;18.742;2023-07-31T00:08:05;98323.13;;;18.78;81.53
55191;BME280;41070;50.360;18.742;2023-07-31T00:11:13;98319.42;;;18.67;81.51
55191;BME280;41070;50.360;18.742;2023-07-31T00:17:08;98315.27;;;18.49;81.67
55191;BME280;41070;50.360;18.742;2023-07-31T00:20:35;98313.28;;;18.39;81.98
55191;BME280;41070;50.360;18.742;2023-07-31T00:24:21;98322.18;;;18.30;82.25
55191;BME280;41070;50.360;18.742;2023-07-31T00:27:48;98319.83;;;18.24;82.40
55191;BME280;41070;50.360;18.742;2023-07-31T00:31:18;98325.73;;;18.22;82.57
55191;BME280;41070;50.360;18.742;2023-07-31T00:34:28;98320.23;;;18.22;82.61
55191;BME280;41070;50.360;18.742;2023-07-31T00:38:15;98322.32;;;18.22;82.69
55191;BME280;41070;50.360;18.742;2023-07-31T00:41:26;98325.20;;;18.20;82.41
55191;BME280;41070;50.360;18.742;2023-07-31T00:44:38;98324.16;;;18.14;82.54
55191;BME280;41070;50.360;18.742;2023-07-31T00:47:53;98328.61;;;18.09;82.37
55191;BME280;41070;50.360;18.742;2023-07-31T00:51:20;98326.67;;;18.00;82.15
55191;BME280;41070;50.360;18.742;2023-07-31T00:57:06;98335.33;;;17.89;82.33
55191;BME280;41070;50.360;18.742;2023-07-31T00:59:53;98341.16;;;17.84;82.37
55191;BME280;41070;50.360;18.742;2023-07-31T01:03:07;98340.06;;;17.83;82.58
55191;BME280;41070;50.360;18.742;2023-07-31T01:14:28;98358.65;;;17.76;82.15
55191;BME280;41070;50.360;18.742;2023-07-31T01:18:06;98362.11;;;17.67;82.41
55191;BME280;41070;50.360;18.742;2023-07-31T01:20:42;98355.50;;;17.60;82.47
55191;BME280;41070;50.360;18.742;2023-07-31T01:24:21;98362.19;;;17.51;82.72
55191;BME280;41070;50.360;18.742;2023-07-31T01:34:35;98363.70;;;17.22;84.00
55191;BME280;41070;50.360;18.742;2023-07-31T01:37:42;98364.03;;;17.13;84.80
55191;BME280;41070;50.360;18.742;2023-07-31T01:40:51;98367.29;;;17.11;85.01
55191;BME280;41070;50.360;18.742;2023-07-31T01:47:08;98368.42;;;17.17;84.88
55191;BME280;41070;50.360;18.742;2023-07-31T01:50:12;98367.73;;;17.18;85.06
55191;BME280;41070;50.360;18.742;2023-07-31T01:53:23;98372.59;;;17.18;84.94
55191;BME280;41070;50.360;18.742;2023-07-31T01:59:36;98367.16;;;17.26;84.98
55191;BME280;41070;50.360;18.742;2023-07-31T02:02:42;98369.55;;;17.25;84.53
55191;BME280;41070;50.360;18.742;2023-07-31T02:05:53;98373.20;;;17.23;84.93
55191;BME280;41070;50.360;18.742;2023-07-31T02:09:01;98376.69;;;17.18;85.68
55191;BME280;41070;50.360;18.742;2023-07-31T02:11:44;98374.73;;;17.22;86.06
55191;BME280;41070;50.360;18.742;2023-07-31T02:14:51;98381.13;;;17.28;85.52
55191;BME280;41070;50.360;18.742;2023-07-31T02:17:57;98385.61;;;17.30;85.19
55191;BME280;41070;50.360;18.742;2023-07-31T02:21:05;98387.22;;;17.31;85.16
55191;BME280;41070;50.360;18.742;2023-07-31T02:24:11;98394.40;;;17.32;85.12
55191;BME280;41070;50.360;18.742;2023-07-31T02:27:18;98397.09;;;17.34;84.90
55191;BME280;41070;50.360;18.742;2023-07-31T02:30:27;98399.89;;;17.32;85.19
55191;BME280;41070;50.360;18.742;2023-07-31T02:33:33;98405.69;;;17.31;84.95
55191;BME280;41070;50.360;18.742;2023-07-31T02:36:40;98406.53;;;17.32;85.49
55191;BME280;41070;50.360;18.742;2023-07-31T02:39:47;98404.28;;;17.33;85.24
55191;BME280;41070;50.360;18.742;2023-07-31T02:42:54;98403.40;;;17.23;84.96
55191;BME280;41070;50.360;18.742;2023-07-31T02:46:01;98396.95;;;17.08;85.38
55191;BME280;41070;50.360;18.742;2023-07-31T02:49:08;98399.36;;;16.99;85.61
55191;BME280;41070;50.360;18.742;2023-07-31T02:52:14;98397.77;;;16.89;86.16
55191;BME280;41070;50.360;18.742;2023-07-31T02:55:21;98404.46;;;16.77;86.60
55191;BME280;41070;50.360;18.742;2023-07-31T02:58:29;98402.23;;;16.66;86.96
55191;BME280;41070;50.360;18.742;2023-07-31T03:01:35;98406.95;;;16.57;87.43
55191;BME280;41070;50.360;18.742;2023-07-31T03:04:42;98408.64;;;16.61;87.69
55191;BME280;41070;50.360;18.742;2023-07-31T03:07:49;98411.96;;;16.63;87.73
55191;BME280;41070;50.360;18.742;2023-07-31T03:11:20;98412.50;;;16.65;87.63
55191;BME280;41070;50.360;18.742;2023-07-31T03:14:02;98409.50;;;16.65;87.91
55191;BME280;41070;50.360;18.742;2023-07-31T03:17:10;98412.34;;;16.71;87.99
55191;BME280;41070;50.360;18.742;2023-07-31T03:23:41;98408.16;;;16.77;87.80
55191;BME280;41070;50.360;18.742;2023-07-31T03:26:40;98403.69;;;16.78;87.67
55191;BME280;41070;50.360;18.742;2023-07-31T03:30:14;98401.60;;;16.79;87.64
55191;BME280;41070;50.360;18.742;2023-07-31T03:33:25;98396.51;;;16.76;87.63
55191;BME280;41070;50.360;18.742;2023-07-31T03:36:09;98399.38;;;16.73;87.44
55191;BME280;41070;50.360;18.742;2023-07-31T03:39:19;98407.02;;;16.78;87.71
55191;BME280;41070;50.360;18.742;2023-07-31T03:45:31;98427.48;;;17.00;87.87
55191;BME280;41070;50.360;18.742;2023-07-31T03:48:37;98432.70;;;17.07;87.71
55191;BME280;41070;50.360;18.742;2023-07-31T03:52:05;98432.15;;;17.14;87.37
55191;BME280;41070;50.360;18.742;2023-07-31T03:54:48;98428.89;;;17.23;87.46
55191;BME280;41070;50.360;18.742;2023-07-31T03:57:55;98428.25;;;17.30;86.97
55191;BME280;41070;50.360;18.742;2023-07-31T04:01:04;98426.38;;;17.35;86.80
55191;BME280;41070;50.360;18.742;2023-07-31T04:04:09;98431.08;;;17.37;86.29
55191;BME280;41070;50.360;18.742;2023-07-31T04:07:16;98424.44;;;17.37;86.41
55191;BME280;41070;50.360;18.742;2023-07-31T04:10:47;98421.56;;;17.45;86.43
55191;BME280;41070;50.360;18.742;2023-07-31T04:13:30;98423.94;;;17.50;85.96
55191;BME280;41070;50.360;18.742;2023-07-31T04:16:37;98426.95;;;17.48;85.93
55191;BME280;41070;50.360;18.742;2023-07-31T04:19:44;98427.80;;;17.50;85.77
55191;BME280;41070;50.360;18.742;2023-07-31T04:23:15;98425.45;;;17.57;85.70
55191;BME280;41070;50.360;18.742;2023-07-31T04:25:59;98429.42;;;17.66;85.59
55191;BME280;41070;50.360;18.742;2023-07-31T04:29:05;98432.48;;;17.74;85.38
55191;BME280;41070;50.360;18.742;2023-07-31T04:32:16;98434.85;;;17.82;85.15
55191;BME280;41070;50.360;18.742;2023-07-31T04:35:22;98438.80;;;17.84;84.48
55191;BME280;41070;50.360;18.742;2023-07-31T04:38:31;98442.05;;;17.85;84.35
55191;BME280;41070;50.360;18.742;2023-07-31T04:42:01;98443.59;;;17.83;84.34
55191;BME280;41070;50.360;18.742;2023-07-31T04:45:05;98446.92;;;17.84;84.50
55191;BME280;41070;50.360;18.742;2023-07-31T04:48:12;98443.52;;;17.86;84.24
55191;BME280;41070;50.360;18.742;2023-07-31T04:51:19;98450.52;;;17.91;84.36
55191;BME280;41070;50.360;18.742;2023-07-31T04:54:25;98445.78;;;17.97;83.77
55191;BME280;41070;50.360;18.742;2023-07-31T04:57:33;98444.83;;;18.00;83.40
55191;BME280;41070;50.360;18.742;2023-07-31T05:00:40;98446.23;;;18.01;83.28
55191;BME280;41070;50.360;18.742;2023-07-31T05:07:39;98442.71;;;18.20;82.77
55191;BME280;41070;50.360;18.742;2023-07-31T05:10:46;98442.73;;;18.26;82.17
55191;BME280;41070;50.360;18.742;2023-07-31T05:13:53;98444.79;;;18.35;81.93
55191;BME280;41070;50.360;18.742;2023-07-31T05:16:59;98442.55;;;18.33;81.18
55191;BME280;41070;50.360;18.742;2023-07-31T05:23:36;98437.62;;;18.41;80.86
55191;BME280;41070;50.360;18.742;2023-07-31T05:26:47;98440.10;;;18.41;80.13
55191;BME280;41070;50.360;18.742;2023-07-31T05:29:55;98434.19;;;18.45;80.03
55191;BME280;41070;50.360;18.742;2023-07-31T05:33:04;98436.89;;;18.45;79.55
55191;BME280;41070;50.360;18.742;2023-07-31T05:35:52;98437.82;;;18.45;79.44
55191;BME280;41070;50.360;18.742;2023-07-31T05:45:20;98451.13;;;18.75;78.78
55191;BME280;41070;50.360;18.742;2023-07-31T05:48:29;98451.59;;;18.74;78.01
55191;BME280;41070;50.360;18.742;2023-07-31T05:51:40;98450.44;;;18.76;77.92
55191;BME280;41070;50.360;18.742;2023-07-31T05:54:53;98447.85;;;18.82;77.51
55191;BME280;41070;50.360;18.742;2023-07-31T05:58:02;98444.50;;;18.93;77.51
55191;BME280;41070;50.360;18.742;2023-07-31T06:01:32;98448.14;;;19.01;76.49
55191;BME280;41070;50.360;18.742;2023-07-31T06:04:27;98450.30;;;19.09;76.38
55191;BME280;41070;50.360;18.742;2023-07-31T06:07:42;98449.80;;;19.22;75.71
55191;BME280;41070;50.360;18.742;2023-07-31T06:11:36;98447.32;;;19.36;75.26
55191;BME280;41070;50.360;18.742;2023-07-31T06:14:45;98446.78;;;19.50;74.98
55191;BME280;41070;50.360;18.742;2023-07-31T06:21:46;98443.20;;;19.57;73.37
55191;BME280;41070;50.360;18.742;2023-07-31T06:24:58;98445.10;;;19.61;72.55
55191;BME280;41070;50.360;18.742;2023-07-31T06:28:30;98445.75;;;19.73;73.04
55191;BME280;41070;50.360;18.742;2023-07-31T06:31:31;98443.45;;;19.83;71.90
55191;BME280;41070;50.360;18.742;2023-07-31T06:34:47;98444.95;;;19.87;72.02
55191;BME280;41070;50.360;18.742;2023-07-31T06:44:11;98434.21;;;20.01;70.93
55191;BME280;41070;50.360;18.742;2023-07-31T06:47:24;98440.34;;;20.07;70.38
55191;BME280;41070;50.360;18.742;2023-07-31T06:50:34;98438.38;;;20.03;69.90
55191;BME280;41070;50.360;18.742;2023-07-31T06:53:43;98440.45;;;20.11;70.34
55191;BME280;41070;50.360;18.742;2023-07-31T07:00:22;98439.77;;;20.36;69.22
55191;BME280;41070;50.360;18.742;2023-07-31T07:04:14;98441.25;;;20.46;68.44
55191;BME280;41070;50.360;18.742;2023-07-31T07:07:20;98446.81;;;20.58;69.09
55191;BME280;41070;50.360;18.742;2023-07-31T07:10:37;98446.63;;;20.66;68.84
55191;BME280;41070;50.360;18.742;2023-07-31T07:14:16;98448.98;;;20.79;69.37
55191;BME280;41070;50.360;18.742;2023-07-31T07:25:04;98445.98;;;20.77;67.47
55191;BME280;41070;50.360;18.742;2023-07-31T07:27:42;98447.05;;;20.78;66.84
55191;BME280;41070;50.360;18.742;2023-07-31T07:34:17;98447.20;;;20.87;66.93
55191;BME280;41070;50.360;18.742;2023-07-31T07:37:38;98445.90;;;20.96;67.13
55191;BME280;41070;50.360;18.742;2023-07-31T07:40:50;98444.02;;;21.14;66.56
55191;BME280;41070;50.360;18.742;2023-07-31T07:47:18;98443.44;;;21.28;66.70
55191;BME280;41070;50.360;18.742;2023-07-31T07:50:54;98448.15;;;21.22;66.70
55191;BME280;41070;50.360;18.742;2023-07-31T07:53:47;98451.88;;;21.26;66.43
55191;BME280;41070;50.360;18.742;2023-07-31T07:57:32;98445.27;;;21.31;66.53
55191;BME280;41070;50.360;18.742;2023-07-31T08:00:17;98443.42;;;21.38;66.10
55191;BME280;41070;50.360;18.742;2023-07-31T08:03:45;98447.48;;;21.51;65.68
55191;BME280;41070;50.360;18.742;2023-07-31T08:06:54;98449.38;;;21.69;65.51
55191;BME280;41070;50.360;18.742;2023-07-31T08:13:22;98449.13;;;22.13;64.03
55191;BME280;41070;50.360;18.742;2023-07-31T08:16:32;98445.48;;;22.24;63.88
55191;BME280;41070;50.360;18.742;2023-07-31T08:19:44;98452.43;;;22.47;63.65
55191;BME280;41070;50.360;18.742;2023-07-31T08:22:55;98450.97;;;22.53;62.86
55191;BME280;41070;50.360;18.742;2023-07-31T08:26:27;98453.48;;;22.46;62.31
55191;BME280;41070;50.360;18.742;2023-07-31T08:32:38;98459.54;;;22.43;62.05
55191;BME280;41070;50.360;18.742;2023-07-31T08:35:46;98455.27;;;22.49;61.20
55191;BME280;41070;50.360;18.742;2023-07-31T08:38:56;98453.48;;;22.56;61.45
55191;BME280;41070;50.360;18.742;2023-07-31T08:42:07;98451.70;;;22.65;60.90
55191;BME280;41070;50.360;18.742;2023-07-31T08:45:16;98451.77;;;22.87;61.10
55191;BME280;41070;50.360;18.742;2023-07-31T08:48:23;98449.83;;;23.15;60.72
55191;BME280;41070;50.360;18.742;2023-07-31T08:51:34;98449.34;;;23.34;59.01
55191;BME280;41070;50.360;18.742;2023-07-31T08:54:42;98450.54;;;23.44;58.36
55191;BME280;41070;50.360;18.742;2023-07-31T08:57:51;98452.49;;;23.55;58.07
55191;BME280;41070;50.360;18.742;2023-07-31T09:01:00;98445.98;;;23.34;56.89
55191;BME280;41070;50.360;18.742;2023-07-31T09:11:12;98445.67;;;23.53;58.34
55191;BME280;41070;50.360;18.742;2023-07-31T09:14:20;98436.63;;;23.76;57.44
55191;BME280;41070;50.360;18.742;2023-07-31T09:17:33;98431.61;;;24.01;55.96
55191;BME280;41070;50.360;18.742;2023-07-31T09:24:08;98433.70;;;24.58;55.03
55191;BME280;41070;50.360;18.742;2023-07-31T09:27:16;98431.41;;;24.73;53.91
55191;BME280;41070;50.360;18.742;2023-07-31T09:30:51;98429.67;;;24.69;53.81
55191;BME280;41070;50.360;18.742;2023-07-31T09:34:07;98431.41;;;24.82;53.80
55191;BME280;41070;50.360;18.742;2023-07-31T09:41:18;98429.95;;;25.14;53.95
55191;BME280;41070;50.360;18.742;2023-07-31T09:44:49;98428.16;;;25.29;52.19
55191;BME280;41070;50.360;18.742;2023-07-31T09:47:25;98431.34;;;25.44;51.87
55191;BME280;41070;50.360;18.742;2023-07-31T09:50:31;98430.16;;;25.37;51.92
55191;BME280;41070;50.360;18.742;2023-07-31T10:04:09;98431.91;;;25.32;49.90
55191;BME280;41070;50.360;18.742;2023-07-31T10:07:17;98425.46;;;25.31;50.09
55191;BME280;41070;50.360;18.742;2023-07-31T10:10:25;98412.85;;;25.53;49.38
55191;BME280;41070;50.360;18.742;2023-07-31T10:13:36;98413.86;;;25.49;49.42
55191;BME280;41070;50.360;18.742;2023-07-31T10:16:43;98400.04;;;25.27;49.68
55191;BME280;41070;50.360;18.742;2023-07-31T10:19:52;98396.45;;;25.14;49.28
55191;BME280;41070;50.360;18.742;2023-07-31T10:22:41;98397.50;;;24.87;49.15
55191;BME280;41070;50.360;18.742;2023-07-31T10:25:51;98395.67;;;24.73;49.22
55191;BME280;41070;50.360;18.742;2023-07-31T10:28:59;98393.80;;;24.82;49.48
55191;BME280;41070;50.360;18.742;2023-07-31T10:31:59;98399.90;;;25.03;49.20
55191;BME280;41070;50.360;18.742;2023-07-31T10:35:08;98393.21;;;25.11;47.63
55191;BME280;41070;50.360;18.742;2023-07-31T10:39:03;98389.31;;;25.22;46.75
55191;BME280;41070;50.360;18.742;2023-07-31T10:41:39;98383.77;;;25.28;46.15
55191;BME280;41070;50.360;18.742;2023-07-31T10:44:50;98383.57;;;25.24;46.49
55191;BME280;41070;50.360;18.742;2023-07-31T10:51:11;98374.09;;;25.43;46.24
55191;BME280;41070;50.360;18.742;2023-07-31T10:57:47;98373.45;;;25.74;45.65
55191;BME280;41070;50.360;18.742;2023-07-31T11:01:06;98374.55;;;25.71;45.13
55191;BME280;41070;50.360;18.742;2023-07-31T11:04:24;98373.29;;;25.71;45.52
55191;BME280;41070;50.360;18.742;2023-07-31T11:08:03;98374.38;;;25.83;44.73
55191;BME280;41070;50.360;18.742;2023-07-31T11:10:48;98369.84;;;26.02;45.44
55191;BME280;41070;50.360;18.742;2023-07-31T11:17:28;98359.05;;;26.52;45.42
55191;BME280;41070;50.360;18.742;2023-07-31T11:20:12;98352.86;;;26.83;44.46
55191;BME280;41070;50.360;18.742;2023-07-31T11:23:21;98347.34;;;26.83;44.13
55191;BME280;41070;50.360;18.742;2023-07-31T11:26:28;98341.55;;;26.66;44.52
55191;BME280;41070;50.360;18.742;2023-07-31T11:40:02;98338.09;;;26.07;42.52
55191;BME280;41070;50.360;18.742;2023-07-31T11:43:10;98343.48;;;25.75;44.38
55191;BME280;41070;50.360;18.742;2023-07-31T11:46:30;98339.18;;;25.58;44.31
55191;BME280;41070;50.360;18.742;2023-07-31T11:55:18;98338.41;;;25.39;44.40
55191;BME280;41070;50.360;18.742;2023-07-31T11:57:49;98335.02;;;25.29;44.96
55191;BME280;41070;50.360;18.742;2023-07-31T12:01:00;98331.80;;;25.23;45.33
55191;BME280;41070;50.360;18.742;2023-07-31T12:04:31;98331.04;;;25.25;45.97
55191;BME280;41070;50.360;18.742;2023-07-31T12:07:00;98331.48;;;25.43;46.32
55191;BME280;41070;50.360;18.742;2023-07-31T12:09:27;98329.11;;;25.68;45.96
55191;BME280;41070;50.360;18.742;2023-07-31T12:11:54;98322.87;;;25.81;45.68
55191;BME280;41070;50.360;18.742;2023-07-31T12:14:27;98330.47;;;25.93;45.28
55191;BME280;41070;50.360;18.742;2023-07-31T12:17:22;98324.67;;;25.96;44.51
55191;BME280;41070;50.360;18.742;2023-07-31T12:19:58;98321.39;;;25.98;44.69
55191;BME280;41070;50.360;18.742;2023-07-31T12:22:46;98317.20;;;26.05;44.70
55191;BME280;41070;50.360;18.742;2023-07-31T12:25:40;98310.30;;;26.10;44.46
55191;BME280;41070;50.360;18.742;2023-07-31T12:31:46;98300.45;;;26.22;44.94
55191;BME280;41070;50.360;18.742;2023-07-31T12:34:55;98298.05;;;26.27;44.89
55191;BME280;41070;50.360;18.742;2023-07-31T12:40:17;98298.80;;;25.88;44.04
55191;BME280;41070;50.360;18.742;2023-07-31T12:43:17;98290.91;;;25.88;43.71
55191;BME280;41070;50.360;18.742;2023-07-31T12:45:44;98282.71;;;25.89;43.59
55191;BME280;41070;50.360;18.742;2023-07-31T12:48:17;98283.50;;;25.95;43.57
55191;BME280;41070;50.360;18.742;2023-07-31T12:50:51;98281.23;;;26.05;44.12
55191;BME280;41070;50.360;18.742;2023-07-31T12:53:43;98279.59;;;26.26;44.05
55191;BME280;41070;50.360;18.742;2023-07-31T12:56:12;98278.89;;;26.35;43.58
55191;BME280;41070;50.360;18.742;2023-07-31T12:58:41;98274.27;;;26.35;43.29
55191;BME280;41070;50.360;18.742;2023-07-31T13:04:07;98272.48;;;26.46;43.31
55191;BME280;41070;50.360;18.742;2023-07-31T13:06:37;98269.02;;;26.46;42.87
55191;BME280;41070;50.360;18.742;2023-07-31T13:09:11;98270.00;;;26.47;43.09
55191;BME280;41070;50.360;18.742;2023-07-31T13:20:18;98258.63;;;26.34;42.40
55191;BME280;41070;50.360;18.742;2023-07-31T13:22:49;98254.23;;;26.34;42.10
55191;BME280;41070;50.360;18.742;2023-07-31T13:28:24;98247.53;;;26.48;41.87
55191;BME280;41070;50.360;18.742;2023-07-31T13:31:13;98245.04;;;26.46;42.42
55191;BME280;41070;50.360;18.742;2023-07-31T13:33:43;98242.15;;;26.61;43.02
55191;BME280;41070;50.360;18.742;2023-07-31T13:36:13;98241.48;;;26.82;42.67
55191;BME280;41070;50.360;18.742;2023-07-31T13:39:05;98242.67;;;26.94;42.36
55191;BME280;41070;50.360;18.742;2023-07-31T13:41:53;98245.48;;;27.04;42.46
55191;BME280;41070;50.360;18.742;2023-07-31T13:47:10;98240.64;;;27.07;41.25
55191;BME280;41070;50.360;18.742;2023-07-31T13:49:38;98242.02;;;26.85;41.54
55191;BME280;41070;50.360;18.742;2023-07-31T13:52:14;98242.29;;;26.58;41.39
55191;BME280;41070;50.360;18.742;2023-07-31T13:55:03;98249.42;;;26.30;41.71
55191;BME280;41070;50.360;18.742;2023-07-31T13:57:32;98247.62;;;26.13;42.26
55191;BME280;41070;50.360;18.742;2023-07-31T14:00:14;98248.23;;;25.94;42.43
55191;BME280;41070;50.360;18.742;2023-07-31T14:02:49;98247.03;;;25.79;42.75
55191;BME280;41070;50.360;18.742;2023-07-31T14:05:37;98252.30;;;25.67;43.54
55191;BME280;41070;50.360;18.742;2023-07-31T14:08:05;98249.64;;;25.51;43.62
55191;BME280;41070;50.360;18.742;2023-07-31T14:10:43;98244.05;;;25.39;43.71
55191;BME280;41070;50.360;18.742;2023-07-31T14:13:21;98243.41;;;25.30;43.86
55191;BME280;41070;50.360;18.742;2023-07-31T14:18:51;98250.16;;;25.10;44.52
55191;BME280;41070;50.360;18.742;2023-07-31T14:21:29;98248.05;;;25.01;44.98
55191;BME280;41070;50.360;18.742;2023-07-31T14:24:09;98245.86;;;24.95;44.83
55191;BME280;41070;50.360;18.742;2023-07-31T14:29:15;98240.95;;;24.94;45.35
55191;BME280;41070;50.360;18.742;2023-07-31T14:31:46;98237.77;;;24.91;45.57
55191;BME280;41070;50.360;18.742;2023-07-31T14:35:00;98242.84;;;24.90;46.08
55191;BME280;41070;50.360;18.742;2023-07-31T14:38:10;98239.56;;;24.96;46.53
55191;BME280;41070;50.360;18.742;2023-07-31T14:40:57;98236.75;;;25.04;46.22
55191;BME280;41070;50.360;18.742;2023-07-31T14:44:06;98233.72;;;25.06;47.27
55191;BME280;41070;50.360;18.742;2023-07-31T14:49:34;98225.34;;;25.30;46.24
55191;BME280;41070;50.360;18.742;2023-07-31T14:52:43;98219.39;;;25.42;45.94
55191;BME280;41070;50.360;18.742;2023-07-31T14:55:34;98214.25;;;25.53;46.45
55191;BME280;41070;50.360;18.742;2023-07-31T14:58:02;98213.86;;;25.69;45.81
55191;BME280;41070;50.360;18.742;2023-07-31T15:00:55;98213.05;;;25.81;45.75
55191;BME280;41070;50.360;18.742;2023-07-31T15:10:13;98204.60;;;25.66;45.27
55191;BME280;41070;50.360;18.742;2023-07-31T15:12:57;98202.79;;;25.72;45.62
55191;BME280;41070;50.360;18.742;2023-07-31T15:15:32;98197.36;;;25.88;45.66
55191;BME280;41070;50.360;18.742;2023-07-31T15:18:14;98192.68;;;26.01;45.10
55191;BME280;41070;50.360;18.742;2023-07-31T15:21:23;98188.39;;;25.91;44.61
55191;BME280;41070;50.360;18.742;2023-07-31T15:24:15;98190.05;;;25.81;44.96
55191;BME280;41070;50.360;18.742;2023-07-31T15:27:49;98191.54;;;25.77;45.14
55191;BME280;41070;50.360;18.742;2023-07-31T15:30:32;98190.20;;;25.66;44.86
55191;BME280;41070;50.360;18.742;2023-07-31T15:33:40;98191.15;;;25.64;45.34
55191;BME280;41070;50.360;18.742;2023-07-31T15:37:00;98192.81;;;25.66;45.79
55191;BME280;41070;50.360;18.742;2023-07-31T15:39:58;98190.91;;;25.69;45.21
55191;BME280;41070;50.360;18.742;2023-07-31T15:43:05;98188.27;;;25.59;44.91
55191;BME280;41070;50.360;18.742;2023-07-31T15:46:14;98187.69;;;25.56;45.42
55191;BME280;41070;50.360;18.742;2023-07-31T15:52:22;98176.43;;;25.56;45.22
55191;BME280;41070;50.360;18.742;2023-07-31T15:55:30;98168.89;;;25.45;45.33
55191;BME280;41070;50.360;18.742;2023-07-31T15:58:36;98170.36;;;25.35;45.46
55191;BME280;41070;50.360;18.742;2023-07-31T16:01:47;98173.23;;;25.30;45.80
55191;BME280;41070;50.360;18.742;2023-07-31T16:04:54;98173.14;;;25.24;45.26
55191;BME280;41070;50.360;18.742;2023-07-31T16:08:02;98167.39;;;25.17;45.62
55191;BME280;41070;50.360;18.742;2023-07-31T16:10:35;98162.09;;;25.21;46.08
55191;BME280;41070;50.360;18.742;2023-07-31T16:13:45;98154.86;;;25.30;46.00
55191;BME280;41070;50.360;18.742;2023-07-31T16:16:53;98161.60;;;25.47;45.98
55191;BME280;41070;50.360;18.742;2023-07-31T16:25:56;98150.64;;;25.57;45.83
55191;BME280;41070;50.360;18.742;2023-07-31T16:31:48;98142.83;;;25.65;45.64
55191;BME280;41070;50.360;18.742;2023-07-31T16:37:57;98146.52;;;25.58;45.59
55191;BME280;41070;50.360;18.742;2023-07-31T16:41:04;98141.48;;;25.55;45.51
55191;BME280;41070;50.360;18.742;2023-07-31T16:44:18;98143.36;;;25.57;45.60
55191;BME280;41070;50.360;18.742;2023-07-31T16:49:49;98142.69;;;25.53;45.33
55191;BME280;41070;50.360;18.742;2023-07-31T16:52:59;98140.73;;;25.47;45.41
55191;BME280;41070;50.360;18.742;2023-07-31T16:56:06;98144.06;;;25.47;45.70
55191;BME280;41070;50.360;18.742;2023-07-31T16:59:16;98147.87;;;25.46;45.61
55191;BME280;41070;50.360;18.742;2023-07-31T17:01:57;98146.84;;;25.47;45.61
55191;BME280;41070;50.360;18.742;2023-07-31T17:04:56;98149.03;;;25.47;45.68
55191;BME280;41070;50.360;18.742;2023-07-31T17:11:05;98149.05;;;25.41;45.47
55191;BME280;41070;50.360;18.742;2023-07-31T17:17:18;98142.21;;;25.51;46.03
55191;BME280;41070;50.360;18.742;2023-07-31T17:20:19;98144.54;;;25.55;46.04
55191;BME280;41070;50.360;18.742;2023-07-31T17:23:27;98145.72;;;25.51;45.71
55191;BME280;41070;50.360;18.742;2023-07-31T17:29:35;98146.05;;;25.39;46.30
55191;BME280;41070;50.360;18.742;2023-07-31T17:32:28;98146.80;;;25.28;46.66
55191;BME280;41070;50.360;18.742;2023-07-31T17:38:08;98152.14;;;25.15;47.27
55191;BME280;41070;50.360;18.742;2023-07-31T17:41:18;98152.72;;;25.02;47.40
55191;BME280;41070;50.360;18.742;2023-07-31T17:44:25;98148.38;;;24.86;47.85
55191;BME280;41070;50.360;18.742;2023-07-31T17:51:10;98139.48;;;24.61;48.75
55191;BME280;41070;50.360;18.742;2023-07-31T17:53:51;98141.68;;;24.52;49.06
55191;BME280;41070;50.360;18.742;2023-07-31T18:02:34;98149.80;;;24.19;50.45
55191;BME280;41070;50.360;18.742;2023-07-31T18:05:05;98155.35;;;24.03;51.10
55191;BME280;41070;50.360;18.742;2023-07-31T18:08:06;98161.41;;;23.95;51.58
55191;BME280;41070;50.360;18.742;2023-07-31T18:14:05;98156.47;;;23.70;52.44
55191;BME280;41070;50.360;18.742;2023-07-31T18:26:31;98158.10;;;23.02;53.82
55191;BME280;41070;50.360;18.742;2023-07-31T18:29:33;98155.56;;;22.83;54.55
55191;BME280;41070;50.360;18.742;2023-07-31T18:32:21;98153.16;;;22.66;54.69
55191;BME280;41070;50.360;18.742;2023-07-31T18:35:10;98144.85;;;22.55;55.27
55191;BME280;41070;50.360;18.742;2023-07-31T18:38:19;98143.69;;;22.43;55.82
55191;BME280;41070;50.360;18.742;2023-07-31T18:41:27;98141.52;;;22.32;56.34
55191;BME280;41070;50.360;18.742;2023-07-31T18:44:35;98137.23;;;22.17;56.95
55191;BME280;41070;50.360;18.742;2023-07-31T18:47:43;98136.98;;;22.03;57.16
55191;BME280;41070;50.360;18.742;2023-07-31T18:50:31;98146.82;;;21.90;57.58
55191;BME280;41070;50.360;18.742;2023-07-31T19:02:32;98165.70;;;21.42;59.25
55191;BME280;41070;50.360;18.742;2023-07-31T19:05:01;98166.13;;;21.30;59.05
55191;BME280;41070;50.360;18.742;2023-07-31T19:07:48;98169.82;;;21.16;59.51
55191;BME280;41070;50.360;18.742;2023-07-31T19:11:01;98164.65;;;21.00;59.89
55191;BME280;41070;50.360;18.742;2023-07-31T19:14:07;98165.16;;;20.86;60.57
55191;BME280;41070;50.360;18.742;2023-07-31T19:17:05;98159.55;;;20.77;60.15
55191;BME280;41070;50.360;18.742;2023-07-31T19:20:13;98166.64;;;20.64;60.41
55191;BME280;41070;50.360;18.742;2023-07-31T19:22:56;98162.81;;;20.56;60.79
55191;BME280;41070;50.360;18.742;2023-07-31T19:26:06;98163.73;;;20.49;61.20
55191;BME280;41070;50.360;18.742;2023-07-31T19:31:16;98161.02;;;20.24;61.75
55191;BME280;41070;50.360;18.742;2023-07-31T19:37:26;98150.41;;;20.16;62.83
55191;BME280;41070;50.360;18.742;2023-07-31T19:39:55;98148.63;;;20.20;63.16
55191;BME280;41070;50.360;18.742;2023-07-31T19:45:37;98145.09;;;20.34;63.18
55191;BME280;41070;50.360;18.742;2023-07-31T19:48:46;98143.85;;;20.38;63.09
55191;BME280;41070;50.360;18.742;2023-07-31T19:51:15;98137.76;;;20.35;63.44
55191;BME280;41070;50.360;18.742;2023-07-31T19:56:50;98135.03;;;20.41;63.41